Time;durP1;ratioP1;P1;durP2;ratioP2;P2;SDS_P1;SDS_P2;PMS_P1;PMS_P2;Temp;Humidity;BMP_temperature;BMP_pressure;BME280_temperature;BME280_humidity;BME280_pressure;Samples;Min_cycle;Max_cycle;Signal;HPM_P1;HPM_P2
2022/05/17 00:00:26;;;;;;;5.75;2.35;;;20.50;81.70;;;;;;5074799;28;20100;-80
2022/05/17 00:02:52;;;;;;;159.55;7.05;;;20.50;81.80;;;;;;5075194;28;20052;-81
2022/05/17 00:05:17;;;;;;;46.85;4.30;;;20.50;81.90;;;;;;5075450;28;20137;-81
2022/05/17 00:07:43;;;;;;;25.98;2.95;;;20.40;81.70;;;;;;5074881;28;20037;-81
2022/05/17 00:10:10;;;;;;;44.08;4.28;;;20.30;81.70;;;;;;5075416;28;20323;-80
2022/05/17 00:12:36;;;;;;;11.57;2.60;;;20.30;82.30;;;;;;5076601;28;20072;-80
2022/05/17 00:15:03;;;;;;;3.88;1.83;;;20.30;82.10;;;;;;5060676;28;20024;-80
2022/05/17 00:17:29;;;;;;;2.53;1.65;;;20.30;82.50;;;;;;5075391;28;20107;-78
2022/05/17 00:19:55;;;;;;;3.72;2.13;;;20.30;82.50;;;;;;5073734;28;20553;-79
2022/05/17 00:22:20;;;;;;;4.00;1.95;;;20.20;82.60;;;;;;5055103;28;20053;-79
2022/05/17 00:24:46;;;;;;;4.55;1.77;;;20.20;82.60;;;;;;5074544;28;20054;-79
2022/05/17 00:27:12;;;;;;;3.45;1.67;;;20.20;82.40;;;;;;5073812;28;20068;-80
2022/05/17 00:29:38;;;;;;;4.78;1.50;;;20.20;82.60;;;;;;5074380;28;20108;-79
2022/05/17 00:32:04;;;;;;;3.95;1.60;;;20.20;82.40;;;;;;5073388;28;20028;-80
2022/05/17 00:34:31;;;;;;;4.00;1.95;;;20.20;82.00;;;;;;5074467;28;20029;-80
2022/05/17 00:36:57;;;;;;;4.80;1.90;;;20.10;81.90;;;;;;5073578;28;20043;-79
2022/05/17 00:39:22;;;;;;;4.25;2.10;;;20.10;81.60;;;;;;5073942;28;20024;-79
2022/05/17 00:41:48;;;;;;;11.05;1.90;;;20.10;81.20;;;;;;5073830;28;20388;-79
2022/05/17 00:47:29;;;;;;;4.70;2.28;;;20.10;81.10;;;;;;5073261;28;20106;-80
2022/05/17 00:50:07;;;;;;;4.82;1.70;;;20.20;80.70;;;;;;5073989;28;20024;-80
2022/05/17 00:52:41;;;;;;;5.03;1.80;;;20.20;81.00;;;;;;5055999;28;20029;-80
2022/05/17 00:55:12;;;;;;;7.78;2.20;;;20.20;81.00;;;;;;5073261;28;20028;-80
2022/05/17 00:58:04;;;;;;;7.80;2.42;;;20.20;81.10;;;;;;5073451;28;20074;-79
2022/05/17 01:00:34;;;;;;;4.72;1.67;;;20.20;80.60;;;;;;5073543;28;20052;-79
2022/05/17 01:03:11;;;;;;;2.80;1.73;;;20.20;80.70;;;;;;5073562;28;20053;-79
2022/05/17 01:05:44;;;;;;;4.43;1.70;;;20.20;80.60;;;;;;5073355;28;20527;-80
2022/05/17 01:08:12;;;;;;;4.03;2.10;;;20.10;80.40;;;;;;5072901;28;20048;-80
2022/05/17 01:10:38;;;;;;;4.55;1.90;;;20.10;80.40;;;;;;5072910;28;20021;-80
2022/05/17 01:15:48;;;;;;;2.72;1.73;;;20.10;80.60;;;;;;5073210;28;20039;-80
2022/05/17 01:18:14;;;;;;;6.30;1.50;;;20.10;80.70;;;;;;5072796;28;20028;-79
2022/05/17 01:20:40;;;;;;;5.68;2.00;;;20.10;80.60;;;;;;5072964;28;20028;-79
2022/05/17 01:23:06;;;;;;;3.05;1.63;;;20.00;81.50;;;;;;5072388;28;20165;-79
2022/05/17 01:25:34;;;;;;;2.00;1.63;;;20.10;81.60;;;;;;5073158;28;20476;-79
2022/05/17 01:28:16;;;;;;;5.80;2.10;;;20.00;82.20;;;;;;5072552;28;20075;-79
2022/05/17 01:30:42;;;;;;;3.33;1.65;;;20.00;82.90;;;;;;5073094;28;20035;-79
2022/05/17 01:33:19;;;;;;;2.80;1.65;;;20.00;83.00;;;;;;5071091;28;20104;-80
2022/05/17 01:35:45;;;;;;;3.45;1.83;;;20.00;83.10;;;;;;5073286;28;20031;-79
2022/05/17 01:38:11;;;;;;;3.85;1.80;;;20.00;83.70;;;;;;5072478;28;20028;-79
2022/05/17 01:40:37;;;;;;;5.10;2.08;;;20.00;83.80;;;;;;5073666;28;20513;-80
2022/05/17 01:43:03;;;;;;;3.28;2.30;;;19.90;84.30;;;;;;5074288;28;20059;-80
2022/05/17 01:45:29;;;;;;;6.82;1.88;;;19.90;84.90;;;;;;5072928;28;20029;-79
2022/05/17 01:47:54;;;;;;;15.02;1.88;;;19.90;85.70;;;;;;5054865;28;20043;-79
2022/05/17 01:50:21;;;;;;;11.98;2.05;;;19.80;86.50;;;;;;5072281;28;20024;-80
2022/05/17 01:52:46;;;;;;;3.22;1.60;;;19.90;87.00;;;;;;5072739;28;20082;-80
2022/05/17 01:55:12;;;;;;;5.50;2.42;;;19.80;87.20;;;;;;5072389;28;20028;-80
2022/05/17 01:57:38;;;;;;;6.88;2.15;;;19.80;86.80;;;;;;5071360;28;20307;-80
2022/05/17 02:00:08;;;;;;;4.88;2.22;;;19.80;87.00;;;;;;5072224;28;20104;-80
2022/05/17 02:02:33;;;;;;;9.00;3.03;;;19.80;86.80;;;;;;5060936;28;20170;-80
2022/05/17 02:04:59;;;;;;;5.20;1.95;;;19.80;87.20;;;;;;5052678;28;20115;-80
2022/05/17 02:07:25;;;;;;;8.55;2.35;;;19.80;89.30;;;;;;5052023;28;20036;-80
2022/05/17 02:09:50;;;;;;;5.63;2.40;;;19.80;90.20;;;;;;5052256;28;20453;-80
2022/05/17 02:12:17;;;;;;;3.33;1.95;;;19.80;90.30;;;;;;5051792;28;20054;-80
2022/05/17 02:14:43;;;;;;;4.18;2.00;;;19.80;90.60;;;;;;5050754;28;20025;-79
2022/05/17 02:17:10;;;;;;;5.13;2.20;;;19.80;90.70;;;;;;5051153;28;20028;-80
2022/05/17 02:19:36;;;;;;;5.55;2.00;;;19.70;90.00;;;;;;5034566;28;20428;-80
2022/05/17 02:22:02;;;;;;;3.35;1.83;;;19.70;90.00;;;;;;5052202;28;20021;-79
2022/05/17 02:24:28;;;;;;;5.13;2.05;;;19.70;90.30;;;;;;5052239;28;20060;-80
2022/05/17 02:26:55;;;;;;;5.85;2.17;;;19.70;90.40;;;;;;5052226;28;20429;-80
2022/05/17 02:29:21;;;;;;;6.55;2.25;;;19.70;90.20;;;;;;5033647;28;20037;-79
2022/05/17 02:31:48;;;;;;;3.75;2.08;;;19.70;89.90;;;;;;5052101;28;20048;-79
2022/05/17 02:34:13;;;;;;;4.85;1.83;;;19.70;89.80;;;;;;5051578;28;20029;-80
2022/05/17 02:36:39;;;;;;;4.00;2.13;;;19.70;89.10;;;;;;5051949;28;20068;-80
2022/05/17 02:39:05;;;;;;;3.90;1.83;;;19.70;89.30;;;;;;5051183;28;20108;-79
2022/05/17 02:41:30;;;;;;;2.88;1.80;;;19.70;89.10;;;;;;5052040;28;20036;-79
2022/05/17 02:43:56;;;;;;;4.60;2.20;;;19.70;88.70;;;;;;5051890;28;20466;-79
2022/05/17 02:46:21;;;;;;;3.92;2.00;;;19.70;88.90;;;;;;5038080;28;20115;-78
2022/05/17 02:48:47;;;;;;;3.20;1.90;;;19.70;88.10;;;;;;5058987;28;20025;-78
2022/05/17 02:51:19;;;;;;;5.45;2.65;;;19.60;87.70;;;;;;5056615;28;20036;-79
2022/05/17 02:53:44;;;;;;;5.50;2.03;;;19.60;88.10;;;;;;5058304;28;20078;-80
2022/05/17 02:56:11;;;;;;;3.78;2.08;;;19.60;88.60;;;;;;5058118;28;20021;-78
2022/05/17 02:58:37;;;;;;;5.55;1.70;;;19.60;89.70;;;;;;5058626;28;20029;-79
2022/05/17 03:01:04;;;;;;;3.90;1.85;;;19.50;89.10;;;;;;5058385;28;20025;-79
2022/05/17 03:03:29;;;;;;;4.72;2.10;;;19.50;89.30;;;;;;5057222;28;20045;-79
2022/05/17 03:05:55;;;;;;;5.25;1.67;;;19.50;88.90;;;;;;5058433;28;20028;-78
2022/05/17 03:08:20;;;;;;;4.72;1.92;;;19.50;88.40;;;;;;5057521;28;20466;-79
2022/05/17 03:10:46;;;;;;;6.35;1.80;;;19.50;88.50;;;;;;5040165;28;20078;-80
2022/05/17 03:13:15;;;;;;;3.50;2.13;;;19.50;88.80;;;;;;5057329;28;20028;-79
2022/05/17 03:15:42;;;;;;;4.20;1.92;;;19.50;88.60;;;;;;5057696;28;20461;-79
2022/05/17 03:18:08;;;;;;;2.72;1.83;;;19.50;89.30;;;;;;5057547;28;20170;-80
2022/05/17 03:20:34;;;;;;;5.63;2.17;;;19.50;90.00;;;;;;5058104;28;20032;-79
2022/05/17 03:23:00;;;;;;;5.10;2.00;;;19.40;90.70;;;;;;5058055;28;20107;-79
2022/05/17 03:25:26;;;;;;;6.18;2.65;;;19.40;91.30;;;;;;5039380;28;20086;-80
2022/05/17 03:27:52;;;;;;;10.27;3.13;;;19.40;92.60;;;;;;5057657;28;20055;-80
2022/05/17 03:30:18;;;;;;;10.85;2.60;;;19.30;95.20;;;;;;5062933;28;20136;-80
2022/05/17 03:32:44;;;;;;;10.43;3.55;;;19.30;97.00;;;;;;5068594;28;20427;-80
2022/05/17 03:35:10;;;;;;;7.75;3.15;;;19.10;99.20;;;;;;5066309;28;20029;-80
2022/05/17 03:37:36;;;;;;;6.75;2.67;;;18.90;99.90;;;;;;5064431;28;20081;-80
2022/05/17 03:40:04;;;;;;;9.32;3.00;;;18.80;99.90;;;;;;5067885;28;20021;-80
2022/05/17 03:42:30;;;;;;;7.05;2.80;;;18.70;99.90;;;;;;5073385;28;20480;-79
2022/05/17 03:44:55;;;;;;;5.30;2.47;;;18.40;99.90;;;;;;5077203;28;20024;-80
2022/05/17 03:47:21;;;;;;;17.67;3.45;;;18.30;99.90;;;;;;5074306;28;20078;-80
2022/05/17 03:49:47;;;;;;;11.77;3.20;;;18.20;99.90;;;;;;5071744;28;20051;-80
2022/05/17 03:52:13;;;;;;;7.45;3.15;;;18.20;99.90;;;;;;5065459;28;20021;-80
2022/05/17 03:54:39;;;;;;;3.28;1.80;;;18.20;99.90;;;;;;5071677;28;20078;-81
2022/05/17 03:57:05;;;;;;;3.45;1.70;;;18.20;99.90;;;;;;5063684;28;20031;-81
2022/05/17 03:59:31;;;;;;;1.33;0.98;;;18.10;99.90;;;;;;5056892;28;20037;-79
2022/05/17 04:01:57;;;;;;;5.28;1.67;;;18.20;99.90;;;;;;5064774;28;20538;-79
2022/05/17 04:04:23;;;;;;;1.65;0.80;;;18.20;99.90;;;;;;5065973;28;20528;-80
2022/05/17 04:06:49;;;;;;;0.88;0.73;;;18.10;99.90;;;;;;5046264;28;20124;-80
2022/05/17 04:09:14;;;;;;;0.50;0.50;;;18.20;99.90;;;;;;5064663;28;20020;-79
2022/05/17 04:11:40;;;;;;;0.80;0.70;;;18.20;99.90;;;;;;5062025;28;20121;-79
2022/05/17 04:14:07;;;;;;;1.30;0.65;;;18.20;99.90;;;;;;5063207;28;20025;-80
2022/05/17 04:16:37;;;;;;;0.40;0.38;;;18.20;99.90;;;;;;5064254;28;20029;-79
2022/05/17 04:19:04;;;;;;;1.15;0.93;;;18.30;99.90;;;;;;5064694;28;20043;-79
2022/05/17 04:21:31;;;;;;;0.70;0.70;;;18.30;99.90;;;;;;5053005;28;20048;-80
2022/05/17 04:23:57;;;;;;;1.33;0.90;;;18.30;99.90;;;;;;5053648;28;20062;-79
2022/05/17 04:26:23;;;;;;;1.10;0.50;;;18.30;99.90;;;;;;5053052;28;20021;-81
2022/05/17 04:28:50;;;;;;;2.15;0.98;;;18.40;99.90;;;;;;5053480;28;20044;-80
2022/05/17 04:31:16;;;;;;;1.75;0.98;;;18.30;99.90;;;;;;5053183;28;20055;-78
2022/05/17 04:33:42;;;;;;;1.25;0.50;;;18.30;99.90;;;;;;5052482;28;20104;-80
2022/05/17 04:36:10;;;;;;;0.60;0.45;;;18.30;99.90;;;;;;5052558;28;20033;-79
2022/05/17 04:38:36;;;;;;;1.83;0.60;;;18.30;99.90;;;;;;5053302;28;20025;-80
2022/05/17 04:41:02;;;;;;;0.90;0.70;;;18.20;99.90;;;;;;5053949;28;20059;-79
2022/05/17 04:43:29;;;;;;;3.95;0.95;;;18.10;99.90;;;;;;5053384;28;20380;-80
2022/05/17 04:45:55;;;;;;;0.70;0.52;;;18.10;99.90;;;;;;5053928;28;20477;-80
2022/05/17 04:48:24;;;;;;;0.40;0.40;;;18.00;99.90;;;;;;5054210;28;20135;-80
2022/05/17 04:50:52;;;;;;;1.02;0.65;;;18.00;99.90;;;;;;5036666;28;20112;-79
2022/05/17 04:53:19;;;;;;;0.50;0.50;;;18.00;99.90;;;;;;5054223;28;20354;-80
2022/05/17 04:55:45;;;;;;;1.08;0.70;;;17.90;99.90;;;;;;5073410;28;20028;-79
2022/05/17 04:58:10;;;;;;;1.20;0.70;;;17.90;99.90;;;;;;5073147;28;20031;-80
2022/05/17 05:00:36;;;;;;;0.47;0.40;;;17.90;99.90;;;;;;5072623;28;20029;-78
2022/05/17 05:03:02;;;;;;;1.23;0.85;;;17.90;99.90;;;;;;5073365;28;20053;-78
2022/05/17 05:05:28;;;;;;;0.68;0.60;;;17.90;99.90;;;;;;5072584;28;20020;-79
2022/05/17 05:07:54;;;;;;;0.45;0.45;;;18.00;99.90;;;;;;5066570;28;20032;-79
2022/05/17 05:10:20;;;;;;;1.42;0.70;;;17.90;99.90;;;;;;5052065;28;20100;-79
2022/05/17 05:12:46;;;;;;;1.40;1.02;;;18.00;99.90;;;;;;5052765;28;20359;-79
2022/05/17 05:15:12;;;;;;;1.05;0.93;;;18.00;99.90;;;;;;5052781;28;20104;-79
2022/05/17 05:17:39;;;;;;;1.70;0.80;;;18.00;99.90;;;;;;5052400;28;20073;-81
2022/05/17 05:20:08;;;;;;;1.45;0.75;;;17.90;99.90;;;;;;5052601;28;20033;-79
2022/05/17 05:22:34;;;;;;;1.05;0.70;;;17.90;99.90;;;;;;5051273;28;20551;-79
2022/05/17 05:25:00;;;;;;;0.57;0.57;;;17.90;99.90;;;;;;5052822;28;20430;-78
2022/05/17 05:27:29;;;;;;;1.83;1.13;;;17.90;99.90;;;;;;5052056;28;20065;-80
2022/05/17 05:29:55;;;;;;;0.70;0.70;;;17.90;99.90;;;;;;5053006;28;20017;-78
2022/05/17 05:32:21;;;;;;;0.47;0.47;;;17.90;99.90;;;;;;5052124;28;20527;-80
2022/05/17 05:34:46;;;;;;;1.48;0.55;;;17.90;99.90;;;;;;5052880;28;20037;-81
2022/05/17 05:37:12;;;;;;;0.93;0.82;;;17.90;99.90;;;;;;5052367;28;20029;-79
2022/05/17 05:39:37;;;;;;;0.40;0.40;;;17.80;99.90;;;;;;5051661;28;20021;-79
2022/05/17 05:42:05;;;;;;;1.30;1.20;;;17.80;99.90;;;;;;5052374;28;20369;-80
2022/05/17 05:44:35;;;;;;;0.60;0.55;;;17.70;99.90;;;;;;5051728;28;20040;-78
2022/05/17 05:47:01;;;;;;;2.00;0.50;;;17.70;99.90;;;;;;5052383;28;20033;-79
2022/05/17 05:49:26;;;;;;;0.70;0.70;;;17.60;99.90;;;;;;5051977;28;20071;-79
2022/05/17 05:51:52;;;;;;;1.52;0.95;;;17.50;99.90;;;;;;5052555;28;20091;-80
2022/05/17 05:54:36;;;;;;;1.55;0.80;;;17.60;99.90;;;;;;5051938;28;20025;-80
2022/05/17 05:57:02;;;;;;;1.52;0.93;;;17.50;99.90;;;;;;5074136;28;20060;-79
2022/05/17 05:59:29;;;;;;;1.45;0.90;;;17.50;99.90;;;;;;5053559;28;20036;-80
2022/05/17 06:01:55;;;;;;;0.43;0.40;;;17.50;99.90;;;;;;5071983;28;20485;-79
2022/05/17 06:04:21;;;;;;;1.00;0.90;;;17.50;99.90;;;;;;5069771;28;20087;-79
2022/05/17 06:06:47;;;;;;;0.93;0.70;;;17.60;99.90;;;;;;5070389;28;20389;-79
2022/05/17 06:09:12;;;;;;;1.17;0.80;;;17.60;99.90;;;;;;5070678;28;20052;-79
2022/05/17 06:11:38;;;;;;;4.68;0.63;;;17.60;99.90;;;;;;5071165;28;20044;-79
2022/05/17 06:14:04;;;;;;;3.33;1.58;;;17.60;99.90;;;;;;5072357;28;20052;-79
2022/05/17 06:16:29;;;;;;;1.73;0.93;;;17.70;99.90;;;;;;5071498;28;20514;-79
2022/05/17 06:18:55;;;;;;;1.13;0.98;;;17.70;99.90;;;;;;5055115;28;20492;-78
2022/05/17 06:21:21;;;;;;;1.00;0.70;;;17.80;99.90;;;;;;5070819;28;20073;-78
2022/05/17 06:23:47;;;;;;;1.42;1.10;;;17.80;99.90;;;;;;5073133;28;20029;-79
2022/05/17 06:26:12;;;;;;;0.98;0.73;;;17.90;99.90;;;;;;5056923;28;20032;-79
2022/05/17 06:28:38;;;;;;;1.05;0.85;;;17.90;99.90;;;;;;5073267;28;20094;-79
2022/05/17 06:31:04;;;;;;;2.42;0.80;;;18.00;99.90;;;;;;5054920;28;20119;-78
2022/05/17 06:33:29;;;;;;;1.10;0.95;;;18.00;99.90;;;;;;5072001;28;20056;-78
2022/05/17 06:35:55;;;;;;;2.78;1.52;;;18.00;99.90;;;;;;5071725;28;20047;-77
2022/05/17 06:38:22;;;;;;;1.70;0.70;;;18.10;99.90;;;;;;5071410;28;20029;-77
2022/05/17 06:41:07;;;;;;;0.90;0.73;;;18.10;99.90;;;;;;5071964;28;20479;-78
2022/05/17 06:43:35;;;;;;;1.83;1.05;;;18.20;99.90;;;;;;5072014;28;20020;-78
2022/05/17 06:46:02;;;;;;;1.67;1.00;;;18.30;99.90;;;;;;5073553;28;20082;-78
2022/05/17 06:48:28;;;;;;;0.80;0.55;;;18.30;99.90;;;;;;5053410;28;20462;-78
2022/05/17 06:50:54;;;;;;;1.67;0.85;;;18.40;99.90;;;;;;5072168;28;20036;-77
2022/05/17 06:53:20;;;;;;;1.23;1.13;;;18.40;99.90;;;;;;5071344;28;20029;-78
2022/05/17 06:55:45;;;;;;;1.20;0.77;;;18.60;99.90;;;;;;5071991;28;20028;-78
2022/05/17 06:58:11;;;;;;;0.90;0.70;;;18.80;99.90;;;;;;5071445;28;20032;-77
2022/05/17 07:00:37;;;;;;;1.00;0.88;;;19.00;99.90;;;;;;5071044;28;20139;-78
2022/05/17 07:03:03;;;;;;;2.55;1.17;;;19.10;99.90;;;;;;5071588;28;20053;-78
2022/05/17 07:05:29;;;;;;;1.13;0.80;;;19.10;99.90;;;;;;5070709;28;20475;-79
2022/05/17 07:07:59;;;;;;;2.60;1.00;;;19.10;99.90;;;;;;5071235;28;20041;-79
2022/05/17 07:13:09;;;;;;;1.10;0.90;;;19.10;99.90;;;;;;5071231;28;20052;-78
2022/05/17 07:15:36;;;;;;;0.75;0.68;;;19.00;99.90;;;;;;5052729;28;20465;-79
2022/05/17 07:18:02;;;;;;;0.70;0.65;;;18.90;99.90;;;;;;5071224;28;20032;-79
2022/05/17 07:20:47;;;;;;;1.85;1.60;;;18.90;99.90;;;;;;5070559;28;20029;-78
2022/05/17 07:23:13;;;;;;;1.65;1.08;;;18.80;99.90;;;;;;5071007;28;20056;-78
2022/05/17 07:25:40;;;;;;;0.80;0.60;;;18.80;99.90;;;;;;5052337;28;20033;-78
2022/05/17 07:28:11;;;;;;;1.42;0.80;;;18.80;99.90;;;;;;5070733;28;20114;-77
2022/05/17 07:30:36;;;;;;;1.63;0.80;;;18.80;99.90;;;;;;5052265;28;20025;-77
2022/05/17 07:33:02;;;;;;;1.48;0.85;;;18.90;99.90;;;;;;5073027;28;20032;-79
2022/05/17 07:35:28;;;;;;;1.00;0.73;;;19.10;99.90;;;;;;5055947;28;20031;-79
2022/05/17 07:37:54;;;;;;;1.20;0.93;;;19.30;99.90;;;;;;5074518;28;20033;-79
2022/05/17 07:40:19;;;;;;;1.48;1.00;;;19.40;99.90;;;;;;5074807;28;20024;-79
2022/05/17 07:42:45;;;;;;;1.25;0.75;;;19.50;99.90;;;;;;5074278;28;20027;-78
2022/05/17 07:45:14;;;;;;;1.42;0.90;;;19.60;99.90;;;;;;5074754;28;20107;-78
2022/05/17 07:47:39;;;;;;;3.75;1.67;;;19.60;99.90;;;;;;5073984;28;20032;-79
2022/05/17 07:50:06;;;;;;;1.40;0.75;;;19.70;99.90;;;;;;5074346;28;20498;-78
2022/05/17 07:52:31;;;;;;;6.20;1.42;;;19.80;99.90;;;;;;5073781;28;20145;-79
2022/05/17 07:54:59;;;;;;;0.88;0.68;;;19.90;99.90;;;;;;5074533;28;20032;-78
2022/05/17 07:57:25;;;;;;;1.60;1.13;;;20.00;99.90;;;;;;5074118;28;20384;-79
2022/05/17 07:59:51;;;;;;;1.33;1.20;;;20.10;99.90;;;;;;5056914;28;20048;-79
2022/05/17 08:02:18;;;;;;;0.93;0.82;;;20.30;99.90;;;;;;5076536;28;20051;-78
2022/05/17 08:04:43;;;;;;;1.23;1.05;;;20.40;99.90;;;;;;5073731;28;20025;-78
2022/05/17 08:07:09;;;;;;;0.80;0.77;;;20.50;99.90;;;;;;5074219;28;20032;-78
2022/05/17 08:09:36;;;;;;;2.95;1.40;;;20.50;99.90;;;;;;5073351;28;20028;-79
2022/05/17 08:12:04;;;;;;;5.03;1.40;;;20.50;99.90;;;;;;5073929;28;20020;-78
2022/05/17 08:14:30;;;;;;;0.85;0.75;;;20.40;99.80;;;;;;5070063;28;20104;-78
2022/05/17 08:16:55;;;;;;;4.80;1.13;;;20.40;99.40;;;;;;5073779;28;20113;-79
2022/05/17 08:19:21;;;;;;;1.52;1.02;;;20.30;99.50;;;;;;5074042;28;20540;-78
2022/05/17 08:21:47;;;;;;;3.88;1.80;;;20.20;99.90;;;;;;5073224;28;20126;-78
2022/05/17 08:24:12;;;;;;;1.38;0.90;;;20.10;99.90;;;;;;5073511;28;20032;-78
2022/05/17 08:29:22;;;;;;;2.90;1.67;;;20.00;99.90;;;;;;5073605;28;20157;-77
2022/05/17 08:34:32;;;;;;;1.88;1.27;;;20.00;99.90;;;;;;5072809;28;20052;-78
2022/05/17 08:36:57;;;;;;;2.92;1.55;;;19.90;99.90;;;;;;5073645;28;20384;-77
2022/05/17 08:39:26;;;;;;;1.63;1.17;;;19.90;99.90;;;;;;5073554;28;20149;-77
2022/05/17 08:42:12;;;;;;;2.05;0.95;;;19.90;99.90;;;;;;5073192;28;20044;-77
2022/05/17 08:44:49;;;;;;;1.08;0.80;;;19.90;99.90;;;;;;5071936;28;20033;-77
2022/05/17 08:47:50;;;;;;;1.25;0.80;;;19.90;99.90;;;;;;5073151;28;20441;-77
2022/05/17 08:50:21;;;;;;;1.08;0.85;;;19.90;99.90;;;;;;5056243;28;20036;-78
2022/05/17 08:52:47;;;;;;;1.90;1.40;;;19.90;99.90;;;;;;5072617;28;20303;-77
2022/05/17 08:55:36;;;;;;;0.80;0.73;;;19.80;99.90;;;;;;5073592;28;20029;-77
2022/05/17 08:58:22;;;;;;;3.05;1.35;;;19.70;99.90;;;;;;5073505;28;20067;-78
2022/05/17 09:00:59;;;;;;;1.33;1.20;;;19.60;99.90;;;;;;5072741;28;20071;-77
2022/05/17 09:03:43;;;;;;;0.88;0.77;;;19.60;99.90;;;;;;5072654;28;20052;-78
2022/05/17 09:06:20;;;;;;;1.40;0.90;;;19.60;99.90;;;;;;5072799;28;20048;-77
2022/05/17 09:08:57;;;;;;;0.95;0.77;;;19.60;99.90;;;;;;5072397;28;20036;-77
2022/05/17 09:11:57;;;;;;;0.60;0.60;;;19.60;99.90;;;;;;5072562;28;20027;-78
2022/05/17 09:14:34;;;;;;;1.80;0.90;;;19.60;99.90;;;;;;5072847;28;20128;-77
2022/05/17 09:19:52;;;;;;;4.07;0.73;;;19.90;99.90;;;;;;5072263;28;20038;-78
2022/05/17 09:22:20;;;;;;;1.42;0.82;;;20.00;99.30;;;;;;5072423;28;20028;-77
2022/05/17 09:24:56;;;;;;;0.60;0.60;;;20.00;98.00;;;;;;5071767;28;20536;-77
2022/05/17 09:27:22;;;;;;;0.65;0.65;;;20.10;97.70;;;;;;5072308;28;20040;-77
2022/05/17 09:29:50;;;;;;;1.00;0.82;;;20.10;97.80;;;;;;5071959;28;20036;-76
2022/05/17 09:32:30;;;;;;;1.65;1.05;;;20.20;98.10;;;;;;5072260;28;20043;-77
2022/05/17 09:35:08;;;;;;;1.63;0.95;;;20.30;98.10;;;;;;5072622;28;20024;-78
2022/05/17 09:37:38;;;;;;;0.80;0.80;;;20.30;96.80;;;;;;5071892;28;20104;-77
2022/05/17 09:40:08;;;;;;;1.48;0.80;;;20.40;97.00;;;;;;5054575;28;20032;-77
2022/05/17 09:42:59;;;;;;;1.00;0.80;;;20.50;96.50;;;;;;5071852;28;20078;-78
2022/05/17 09:45:46;;;;;;;1.67;1.10;;;20.70;96.60;;;;;;5072176;28;20093;-78
2022/05/17 09:48:24;;;;;;;0.98;0.88;;;20.80;95.90;;;;;;5072239;28;20029;-77
2022/05/17 09:53:49;;;;;;;1.38;0.90;;;20.90;94.00;;;;;;5071710;28;20035;-78
2022/05/17 09:56:17;;;;;;;1.02;0.85;;;21.00;94.30;;;;;;5074689;28;20032;-77
2022/05/17 09:58:44;;;;;;;1.33;1.00;;;21.00;94.70;;;;;;5071282;28;20477;-77
2022/05/17 10:01:15;;;;;;;0.82;0.82;;;21.00;94.10;;;;;;5072009;28;20150;-77
2022/05/17 10:03:44;;;;;;;0.73;0.73;;;20.90;94.40;;;;;;5071542;28;20120;-78
2022/05/17 10:06:34;;;;;;;1.27;0.80;;;20.80;94.70;;;;;;5071909;28;20029;-77
2022/05/17 10:09:10;;;;;;;1.50;1.08;;;20.50;95.60;;;;;;5072307;28;20064;-78
2022/05/17 10:11:49;;;;;;;1.60;1.33;;;20.30;97.60;;;;;;5071452;28;20107;-78
2022/05/17 10:14:34;;;;;;;1.42;1.00;;;20.10;99.40;;;;;;5069224;28;20131;-77
2022/05/17 10:17:23;;;;;;;3.58;1.08;;;19.90;99.90;;;;;;5072105;28;20410;-77
2022/05/17 10:20:00;;;;;;;1.70;1.25;;;19.90;99.90;;;;;;5060224;28;20037;-76
2022/05/17 10:22:53;;;;;;;2.15;1.15;;;19.80;99.90;;;;;;5072089;28;20028;-76
2022/05/17 10:25:35;;;;;;;1.10;1.00;;;19.70;99.90;;;;;;5071575;28;20420;-78
2022/05/17 10:28:09;;;;;;;2.35;1.10;;;19.70;99.90;;;;;;5071710;28;20040;-76
2022/05/17 10:30:59;;;;;;;1.65;1.10;;;19.80;99.90;;;;;;5071223;28;20475;-79
2022/05/17 10:33:35;;;;;;;0.77;0.75;;;20.00;99.90;;;;;;5072020;28;20455;-77
2022/05/17 10:36:30;;;;;;;1.60;0.95;;;20.20;99.90;;;;;;5071741;28;20043;-77
2022/05/17 10:39:02;;;;;;;1.10;1.08;;;20.30;99.90;;;;;;5068955;28;20127;-76
2022/05/17 10:41:28;;;;;;;1.13;1.00;;;20.40;99.90;;;;;;5071925;28;20033;-77
2022/05/17 10:43:53;;;;;;;1.10;1.00;;;20.30;99.90;;;;;;5070682;28;20367;-76
2022/05/17 10:46:24;;;;;;;1.02;0.93;;;20.30;99.90;;;;;;5071564;28;20036;-76
2022/05/17 10:49:03;;;;;;;1.27;0.98;;;20.30;99.90;;;;;;5070839;28;20052;-77
2022/05/17 10:52:13;;;;;;;1.30;1.20;;;20.20;99.90;;;;;;5071497;28;20473;-78
2022/05/17 10:54:48;;;;;;;2.00;1.33;;;20.10;99.90;;;;;;5025936;28;20041;-77
2022/05/17 10:57:14;;;;;;;1.77;1.17;;;20.10;99.90;;;;;;5071556;28;20036;-77
2022/05/17 10:59:58;;;;;;;2.97;0.88;;;20.00;99.90;;;;;;5070561;28;20458;-78
2022/05/17 11:02:43;;;;;;;0.98;0.80;;;20.00;99.90;;;;;;5071223;28;20056;-78
2022/05/17 11:05:34;;;;;;;1.52;1.42;;;20.10;99.90;;;;;;5071796;28;20423;-79
2022/05/17 11:08:28;;;;;;;1.55;1.42;;;20.00;99.90;;;;;;5074404;28;20116;-77
2022/05/17 11:10:54;;;;;;;1.10;1.00;;;19.90;99.90;;;;;;5075146;28;20459;-77
2022/05/17 11:13:56;;;;;;;1.38;0.85;;;19.90;99.90;;;;;;5075338;28;20052;-78
2022/05/17 11:16:32;;;;;;;0.85;0.82;;;19.70;99.90;;;;;;5075330;28;20082;-77
2022/05/17 11:19:08;;;;;;;1.50;0.98;;;19.50;99.90;;;;;;5074580;28;20412;-77
2022/05/17 11:21:58;;;;;;;1.45;1.08;;;19.40;99.90;;;;;;5075280;28;20024;-76
2022/05/17 11:24:50;;;;;;;1.98;1.13;;;19.30;99.90;;;;;;5075011;28;20082;-76
2022/05/17 11:27:49;;;;;;;1.13;1.00;;;19.10;99.90;;;;;;5075139;28;20112;-76
2022/05/17 11:30:30;;;;;;;2.75;0.90;;;19.10;99.90;;;;;;5074835;28;20085;-77
2022/05/17 11:33:24;;;;;;;1.00;0.80;;;19.00;99.90;;;;;;5074513;28;20021;-77
2022/05/17 11:35:49;;;;;;;0.73;0.65;;;18.90;99.90;;;;;;5074207;28;20021;-77
2022/05/17 11:38:41;;;;;;;0.88;0.88;;;18.90;99.90;;;;;;5074649;28;20029;-76
2022/05/17 11:41:36;;;;;;;1.63;1.15;;;18.90;99.90;;;;;;5075035;28;20029;-76
2022/05/17 11:44:07;;;;;;;1.75;1.20;;;18.80;99.90;;;;;;5056488;28;20043;-77
2022/05/17 11:46:35;;;;;;;2.50;1.48;;;18.80;99.90;;;;;;5074755;28;20028;-78
2022/05/17 11:49:18;;;;;;;2.53;1.40;;;18.90;99.90;;;;;;5073990;28;20037;-78
2022/05/17 11:51:58;;;;;;;2.45;1.10;;;18.90;99.90;;;;;;5074103;28;20028;-77
2022/05/17 11:54:44;;;;;;;1.38;1.25;;;19.10;99.90;;;;;;5074404;28;20055;-75
2022/05/17 11:57:33;;;;;;;2.65;1.40;;;19.10;99.90;;;;;;5075033;28;20429;-78
2022/05/17 12:00:04;;;;;;;2.53;1.77;;;19.20;99.90;;;;;;5073849;28;20218;-78
2022/05/17 12:02:47;;;;;;;2.38;1.25;;;19.30;99.90;;;;;;5074480;28;20163;-76
2022/05/17 12:05:43;;;;;;;2.30;1.38;;;19.30;99.90;;;;;;5074318;28;20031;-77
2022/05/17 12:08:29;;;;;;;1.30;1.17;;;19.40;99.90;;;;;;5056026;28;20107;-77
2022/05/17 12:11:14;;;;;;;1.45;1.15;;;19.40;99.90;;;;;;5073540;28;20032;-78
2022/05/17 12:14:08;;;;;;;1.35;1.02;;;19.40;99.90;;;;;;5074426;28;20377;-76
2022/05/17 12:16:36;;;;;;;1.08;0.98;;;19.40;99.90;;;;;;5074226;28;20541;-77
2022/05/17 12:19:21;;;;;;;1.88;1.45;;;19.40;99.90;;;;;;5072306;28;20234;-78
2022/05/17 12:22:00;;;;;;;1.17;0.98;;;19.40;99.90;;;;;;5069962;28;20111;-78
2022/05/17 12:24:37;;;;;;;1.10;1.00;;;19.40;99.90;;;;;;5074373;28;20032;-78
2022/05/17 12:27:24;;;;;;;2.90;1.38;;;19.40;99.90;;;;;;5073065;28;20489;-75
2022/05/17 12:33:22;;;;;;;1.35;1.25;;;19.30;99.90;;;;;;5073441;28;20119;-78
2022/05/17 12:35:50;;;;;;;1.80;1.25;;;19.20;99.90;;;;;;5073665;28;20032;-78
2022/05/17 12:44:06;;;;;;;2.20;1.67;;;19.40;99.90;;;;;;5072846;28;20055;-77
2022/05/17 12:46:36;;;;;;;4.22;2.88;;;19.40;99.90;;;;;;5073422;28;20439;-77
2022/05/17 12:49:17;;;;;;;1.67;1.33;;;19.50;99.90;;;;;;5072410;28;20562;-77
2022/05/17 12:51:58;;;;;;;2.13;1.48;;;19.50;99.90;;;;;;5073776;28;20160;-76
2022/05/17 12:54:27;;;;;;;2.17;1.17;;;19.50;99.90;;;;;;5055058;28;20109;-77
2022/05/17 12:56:53;;;;;;;2.88;1.17;;;19.60;99.90;;;;;;5072956;28;20069;-77
2022/05/17 12:59:30;;;;;;;2.85;1.60;;;19.60;99.90;;;;;;5073694;28;20458;-78
2022/05/17 13:02:01;;;;;;;1.65;1.20;;;19.70;99.90;;;;;;5072919;28;20052;-76
2022/05/17 13:04:31;;;;;;;1.73;1.17;;;19.80;99.90;;;;;;5055556;28;20029;-75
2022/05/17 13:07:14;;;;;;;1.67;1.58;;;19.90;99.90;;;;;;5073151;28;20469;-77
2022/05/17 13:10:02;;;;;;;2.03;1.65;;;19.90;99.90;;;;;;5073515;28;20159;-76
2022/05/17 13:12:31;;;;;;;1.92;1.08;;;20.00;99.90;;;;;;5073579;28;20403;-78
2022/05/17 13:14:57;;;;;;;1.40;1.30;;;20.10;99.90;;;;;;5072698;28;20035;-77
2022/05/17 13:17:28;;;;;;;0.90;0.90;;;20.10;99.90;;;;;;5073803;28;20028;-76
2022/05/17 13:20:01;;;;;;;;;;;20.20;99.90;;;;;;5073025;28;20357;-76
2022/05/17 13:22:27;;;;;;;2.65;1.20;;;20.30;99.90;;;;;;5073090;28;20364;-77
2022/05/17 13:25:01;;;;;;;1.90;1.30;;;20.30;99.90;;;;;;5072860;28;20043;-76
2022/05/17 13:27:43;;;;;;;1.60;1.30;;;20.30;99.90;;;;;;5073016;28;20059;-77
2022/05/17 13:30:30;;;;;;;1.80;1.50;;;20.30;99.90;;;;;;5072116;28;20023;-77
2022/05/17 13:32:58;;;;;;;3.42;1.73;;;20.20;99.90;;;;;;5072616;28;20029;-77